sensor_id;sensor_type;location;lat;lon;timestamp;P1;durP1;ratioP1;P2;durP2;ratioP2
22571;SDS011;11452;53.368;14.658;2022-10-28T00:04:00;6.83;;;6.13;;
22571;SDS011;11452;53.368;14.658;2022-10-28T00:09:06;6.00;;;5.50;;
22571;SDS011;11452;53.368;14.658;2022-10-28T00:14:13;8.37;;;5.67;;
22571;SDS011;11452;53.368;14.658;2022-10-28T00:19:20;7.57;;;5.60;;
22571;SDS011;11452;53.368;14.658;2022-10-28T00:24:25;6.77;;;6.00;;
22571;SDS011;11452;53.368;14.658;2022-10-28T00:29:31;7.23;;;5.43;;
22571;SDS011;11452;53.368;14.658;2022-10-28T00:34:36;7.70;;;5.47;;
22571;SDS011;11452;53.368;14.658;2022-10-28T00:39:42;7.47;;;5.47;;
22571;SDS011;11452;53.368;14.658;2022-10-28T00:45:00;7.53;;;5.97;;
22571;SDS011;11452;53.368;14.658;2022-10-28T00:50:10;7.60;;;6.27;;
22571;SDS011;11452;53.368;14.658;2022-10-28T00:55:15;6.30;;;5.70;;
22571;SDS011;11452;53.368;14.658;2022-10-28T01:00:23;8.00;;;4.87;;
22571;SDS011;11452;53.368;14.658;2022-10-28T01:05:29;7.23;;;5.57;;
22571;SDS011;11452;53.368;14.658;2022-10-28T01:32:28;7.13;;;5.70;;
22571;SDS011;11452;53.368;14.658;2022-10-28T01:43:22;6.57;;;5.70;;
22571;SDS011;11452;53.368;14.658;2022-10-28T01:48:34;7.70;;;5.97;;
22571;SDS011;11452;53.368;14.658;2022-10-28T01:53:48;6.73;;;6.00;;
22571;SDS011;11452;53.368;14.658;2022-10-28T01:58:56;6.63;;;6.03;;
22571;SDS011;11452;53.368;14.658;2022-10-28T02:04:04;6.20;;;5.40;;
22571;SDS011;11452;53.368;14.658;2022-10-28T02:14:44;8.20;;;5.87;;
22571;SDS011;11452;53.368;14.658;2022-10-28T02:20:13;7.20;;;5.73;;
22571;SDS011;11452;53.368;14.658;2022-10-28T02:25:31;6.30;;;5.70;;
22571;SDS011;11452;53.368;14.658;2022-10-28T02:30:45;6.37;;;5.43;;
22571;SDS011;11452;53.368;14.658;2022-10-28T02:35:59;7.80;;;6.37;;
22571;SDS011;11452;53.368;14.658;2022-10-28T02:41:08;6.77;;;6.07;;
22571;SDS011;11452;53.368;14.658;2022-10-28T02:46:15;7.83;;;6.13;;
22571;SDS011;11452;53.368;14.658;2022-10-28T02:51:28;8.13;;;5.17;;
22571;SDS011;11452;53.368;14.658;2022-10-28T02:56:36;6.40;;;5.60;;
22571;SDS011;11452;53.368;14.658;2022-10-28T03:01:42;10.30;;;5.93;;
22571;SDS011;11452;53.368;14.658;2022-10-28T03:06:48;7.03;;;5.67;;
22571;SDS011;11452;53.368;14.658;2022-10-28T03:11:53;7.33;;;5.83;;
22571;SDS011;11452;53.368;14.658;2022-10-28T03:16:59;5.70;;;4.90;;
22571;SDS011;11452;53.368;14.658;2022-10-28T03:22:05;6.13;;;5.30;;
22571;SDS011;11452;53.368;14.658;2022-10-28T03:27:10;7.00;;;6.33;;
22571;SDS011;11452;53.368;14.658;2022-10-28T03:32:16;6.67;;;6.03;;
22571;SDS011;11452;53.368;14.658;2022-10-28T03:37:22;6.27;;;5.67;;
22571;SDS011;11452;53.368;14.658;2022-10-28T03:42:28;8.17;;;5.97;;
22571;SDS011;11452;53.368;14.658;2022-10-28T03:47:33;6.63;;;5.87;;
22571;SDS011;11452;53.368;14.658;2022-10-28T03:52:40;7.37;;;6.00;;
22571;SDS011;11452;53.368;14.658;2022-10-28T03:57:47;7.73;;;6.47;;
22571;SDS011;11452;53.368;14.658;2022-10-28T04:02:52;7.50;;;6.07;;
22571;SDS011;11452;53.368;14.658;2022-10-28T04:07:59;7.47;;;6.37;;
22571;SDS011;11452;53.368;14.658;2022-10-28T04:13:05;7.90;;;6.67;;
22571;SDS011;11452;53.368;14.658;2022-10-28T04:18:11;8.23;;;6.60;;
22571;SDS011;11452;53.368;14.658;2022-10-28T04:23:17;8.40;;;6.27;;
22571;SDS011;11452;53.368;14.658;2022-10-28T04:28:22;7.40;;;5.83;;
22571;SDS011;11452;53.368;14.658;2022-10-28T04:33:28;6.27;;;5.57;;
22571;SDS011;11452;53.368;14.658;2022-10-28T04:38:33;7.57;;;5.97;;
22571;SDS011;11452;53.368;14.658;2022-10-28T04:43:39;6.73;;;5.93;;
22571;SDS011;11452;53.368;14.658;2022-10-28T04:48:45;7.10;;;6.30;;
22571;SDS011;11452;53.368;14.658;2022-10-28T04:53:51;6.07;;;5.43;;
22571;SDS011;11452;53.368;14.658;2022-10-28T04:58:56;6.27;;;5.67;;
22571;SDS011;11452;53.368;14.658;2022-10-28T05:04:02;8.50;;;5.90;;
22571;SDS011;11452;53.368;14.658;2022-10-28T05:09:08;8.33;;;5.90;;
22571;SDS011;11452;53.368;14.658;2022-10-28T05:14:14;8.23;;;6.73;;
22571;SDS011;11452;53.368;14.658;2022-10-28T05:19:19;6.40;;;5.80;;
22571;SDS011;11452;53.368;14.658;2022-10-28T05:24:25;7.87;;;6.13;;
22571;SDS011;11452;53.368;14.658;2022-10-28T05:29:30;9.57;;;6.47;;
22571;SDS011;11452;53.368;14.658;2022-10-28T05:34:36;8.17;;;6.07;;
22571;SDS011;11452;53.368;14.658;2022-10-28T05:39:41;7.70;;;5.50;;
22571;SDS011;11452;53.368;14.658;2022-10-28T05:44:47;6.20;;;5.60;;
22571;SDS011;11452;53.368;14.658;2022-10-28T05:49:52;8.53;;;6.40;;
22571;SDS011;11452;53.368;14.658;2022-10-28T05:54:58;8.00;;;6.17;;
22571;SDS011;11452;53.368;14.658;2022-10-28T06:00:04;7.27;;;6.57;;
22571;SDS011;11452;53.368;14.658;2022-10-28T06:05:12;9.70;;;6.37;;
22571;SDS011;11452;53.368;14.658;2022-10-28T06:10:18;7.13;;;5.90;;
22571;SDS011;11452;53.368;14.658;2022-10-28T06:15:23;6.43;;;5.83;;
22571;SDS011;11452;53.368;14.658;2022-10-28T06:20:29;6.40;;;5.53;;
22571;SDS011;11452;53.368;14.658;2022-10-28T06:25:34;6.83;;;5.73;;
22571;SDS011;11452;53.368;14.658;2022-10-28T06:30:40;8.47;;;6.17;;
22571;SDS011;11452;53.368;14.658;2022-10-28T06:35:45;7.97;;;5.70;;
22571;SDS011;11452;53.368;14.658;2022-10-28T06:40:51;7.80;;;4.73;;
22571;SDS011;11452;53.368;14.658;2022-10-28T06:45:59;5.13;;;4.63;;
22571;SDS011;11452;53.368;14.658;2022-10-28T06:51:07;7.40;;;5.50;;
22571;SDS011;11452;53.368;14.658;2022-10-28T06:56:13;5.30;;;4.80;;
22571;SDS011;11452;53.368;14.658;2022-10-28T07:01:19;6.80;;;4.77;;
22571;SDS011;11452;53.368;14.658;2022-10-28T07:06:25;6.87;;;5.50;;
22571;SDS011;11452;53.368;14.658;2022-10-28T07:11:31;6.50;;;4.97;;
22571;SDS011;11452;53.368;14.658;2022-10-28T07:16:37;5.60;;;4.90;;
22571;SDS011;11452;53.368;14.658;2022-10-28T07:21:42;6.20;;;3.80;;
22571;SDS011;11452;53.368;14.658;2022-10-28T07:26:48;6.40;;;4.70;;
22571;SDS011;11452;53.368;14.658;2022-10-28T07:31:55;8.97;;;4.43;;
22571;SDS011;11452;53.368;14.658;2022-10-28T07:37:00;4.70;;;4.20;;
22571;SDS011;11452;53.368;14.658;2022-10-28T07:42:07;5.50;;;4.77;;
22571;SDS011;11452;53.368;14.658;2022-10-28T07:47:12;6.67;;;4.80;;
22571;SDS011;11452;53.368;14.658;2022-10-28T07:52:20;5.80;;;4.50;;
22571;SDS011;11452;53.368;14.658;2022-10-28T07:57:26;7.67;;;4.77;;
22571;SDS011;11452;53.368;14.658;2022-10-28T08:02:31;5.93;;;4.50;;
22571;SDS011;11452;53.368;14.658;2022-10-28T08:07:37;5.30;;;3.83;;
22571;SDS011;11452;53.368;14.658;2022-10-28T08:12:42;4.83;;;4.43;;
22571;SDS011;11452;53.368;14.658;2022-10-28T08:17:52;5.77;;;4.63;;
22571;SDS011;11452;53.368;14.658;2022-10-28T08:22:59;6.67;;;4.30;;
22571;SDS011;11452;53.368;14.658;2022-10-28T08:28:06;4.17;;;3.40;;
22571;SDS011;11452;53.368;14.658;2022-10-28T08:33:11;5.47;;;4.30;;
22571;SDS011;11452;53.368;14.658;2022-10-28T08:38:18;4.40;;;3.90;;
22571;SDS011;11452;53.368;14.658;2022-10-28T08:48:34;4.73;;;4.07;;
22571;SDS011;11452;53.368;14.658;2022-10-28T08:53:45;4.67;;;4.23;;
22571;SDS011;11452;53.368;14.658;2022-10-28T08:58:52;5.37;;;4.23;;
22571;SDS011;11452;53.368;14.658;2022-10-28T09:04:04;7.03;;;4.50;;
22571;SDS011;11452;53.368;14.658;2022-10-28T09:09:20;7.70;;;4.03;;
22571;SDS011;11452;53.368;14.658;2022-10-28T09:15:02;5.83;;;4.10;;
22571;SDS011;11452;53.368;14.658;2022-10-28T09:19:57;5.27;;;4.70;;
22571;SDS011;11452;53.368;14.658;2022-10-28T09:25:20;7.70;;;4.50;;
22571;SDS011;11452;53.368;14.658;2022-10-28T09:30:33;6.80;;;4.37;;
22571;SDS011;11452;53.368;14.658;2022-10-28T09:35:45;5.43;;;3.57;;
22571;SDS011;11452;53.368;14.658;2022-10-28T09:40:58;6.50;;;4.17;;
22571;SDS011;11452;53.368;14.658;2022-10-28T09:46:09;5.27;;;4.03;;
22571;SDS011;11452;53.368;14.658;2022-10-28T09:56:34;5.23;;;4.00;;
22571;SDS011;11452;53.368;14.658;2022-10-28T10:01:41;5.87;;;4.40;;
22571;SDS011;11452;53.368;14.658;2022-10-28T10:06:51;6.80;;;4.20;;
22571;SDS011;11452;53.368;14.658;2022-10-28T10:12:17;4.73;;;3.90;;
22571;SDS011;11452;53.368;14.658;2022-10-28T10:17:29;5.27;;;4.07;;
22571;SDS011;11452;53.368;14.658;2022-10-28T10:22:36;5.40;;;4.03;;
22571;SDS011;11452;53.368;14.658;2022-10-28T10:27:52;4.60;;;4.10;;
22571;SDS011;11452;53.368;14.658;2022-10-28T10:33:03;4.33;;;3.93;;
22571;SDS011;11452;53.368;14.658;2022-10-28T10:38:12;6.73;;;3.80;;
22571;SDS011;11452;53.368;14.658;2022-10-28T10:43:39;5.30;;;3.97;;
22571;SDS011;11452;53.368;14.658;2022-10-28T10:48:38;5.53;;;3.40;;
22571;SDS011;11452;53.368;14.658;2022-10-28T10:53:47;3.70;;;3.37;;
22571;SDS011;11452;53.368;14.658;2022-10-28T10:58:56;5.70;;;3.53;;
22571;SDS011;11452;53.368;14.658;2022-10-28T11:04:07;8.20;;;3.40;;
22571;SDS011;11452;53.368;14.658;2022-10-28T11:09:25;6.73;;;3.33;;
22571;SDS011;11452;53.368;14.658;2022-10-28T11:14:36;3.77;;;3.07;;
22571;SDS011;11452;53.368;14.658;2022-10-28T11:19:41;4.93;;;3.17;;
22571;SDS011;11452;53.368;14.658;2022-10-28T11:30:14;5.67;;;3.70;;
22571;SDS011;11452;53.368;14.658;2022-10-28T11:35:33;6.93;;;3.97;;
22571;SDS011;11452;53.368;14.658;2022-10-28T11:46:10;5.43;;;3.90;;
22571;SDS011;11452;53.368;14.658;2022-10-28T11:56:51;4.97;;;3.10;;
22571;SDS011;11452;53.368;14.658;2022-10-28T12:12:52;5.43;;;4.07;;
22571;SDS011;11452;53.368;14.658;2022-10-28T12:18:10;7.47;;;4.20;;
22571;SDS011;11452;53.368;14.658;2022-10-28T12:23:22;4.83;;;4.43;;
22571;SDS011;11452;53.368;14.658;2022-10-28T12:28:31;7.10;;;5.17;;
22571;SDS011;11452;53.368;14.658;2022-10-28T12:33:42;4.50;;;4.10;;
22571;SDS011;11452;53.368;14.658;2022-10-28T12:44:06;5.17;;;3.77;;
22571;SDS011;11452;53.368;14.658;2022-10-28T12:49:30;6.33;;;4.00;;
22571;SDS011;11452;53.368;14.658;2022-10-28T12:54:48;7.03;;;4.53;;
22571;SDS011;11452;53.368;14.658;2022-10-28T13:00:03;6.63;;;4.17;;
22571;SDS011;11452;53.368;14.658;2022-10-28T13:05:22;5.30;;;3.93;;
22571;SDS011;11452;53.368;14.658;2022-10-28T13:10:45;5.90;;;4.47;;
22571;SDS011;11452;53.368;14.658;2022-10-28T13:16:03;8.27;;;4.23;;
22571;SDS011;11452;53.368;14.658;2022-10-28T13:27:11;4.97;;;3.80;;
22571;SDS011;11452;53.368;14.658;2022-10-28T13:32:37;6.47;;;4.47;;
22571;SDS011;11452;53.368;14.658;2022-10-28T13:37:45;4.80;;;3.50;;
22571;SDS011;11452;53.368;14.658;2022-10-28T13:42:52;7.13;;;3.80;;
22571;SDS011;11452;53.368;14.658;2022-10-28T13:48:44;5.27;;;3.47;;
22571;SDS011;11452;53.368;14.658;2022-10-28T13:58:38;4.27;;;3.87;;
22571;SDS011;11452;53.368;14.658;2022-10-28T14:03:50;5.47;;;4.10;;
22571;SDS011;11452;53.368;14.658;2022-10-28T14:08:55;7.07;;;4.43;;
22571;SDS011;11452;53.368;14.658;2022-10-28T14:14:01;7.57;;;4.03;;
22571;SDS011;11452;53.368;14.658;2022-10-28T14:24:31;4.57;;;4.13;;
22571;SDS011;11452;53.368;14.658;2022-10-28T14:29:42;5.00;;;3.70;;
22571;SDS011;11452;53.368;14.658;2022-10-28T14:34:52;4.53;;;3.63;;
22571;SDS011;11452;53.368;14.658;2022-10-28T14:40:02;4.97;;;4.50;;
22571;SDS011;11452;53.368;14.658;2022-10-28T14:45:33;4.90;;;3.90;;
22571;SDS011;11452;53.368;14.658;2022-10-28T14:50:45;3.43;;;3.13;;
22571;SDS011;11452;53.368;14.658;2022-10-28T14:56:04;4.37;;;3.80;;
22571;SDS011;11452;53.368;14.658;2022-10-28T15:06:32;4.20;;;3.03;;
22571;SDS011;11452;53.368;14.658;2022-10-28T15:11:42;4.93;;;3.37;;
22571;SDS011;11452;53.368;14.658;2022-10-28T15:16:50;5.00;;;3.60;;
22571;SDS011;11452;53.368;14.658;2022-10-28T15:27:11;5.57;;;3.23;;
22571;SDS011;11452;53.368;14.658;2022-10-28T15:37:29;5.20;;;3.23;;
22571;SDS011;11452;53.368;14.658;2022-10-28T15:42:49;4.90;;;3.70;;
22571;SDS011;11452;53.368;14.658;2022-10-28T15:48:00;5.97;;;3.27;;
22571;SDS011;11452;53.368;14.658;2022-10-28T15:58:37;5.83;;;3.73;;
22571;SDS011;11452;53.368;14.658;2022-10-28T16:03:46;6.73;;;4.00;;
22571;SDS011;11452;53.368;14.658;2022-10-28T16:14:34;6.40;;;3.57;;
22571;SDS011;11452;53.368;14.658;2022-10-28T16:19:57;4.10;;;3.73;;
22571;SDS011;11452;53.368;14.658;2022-10-28T16:25:16;4.77;;;3.67;;
22571;SDS011;11452;53.368;14.658;2022-10-28T16:30:23;5.47;;;3.90;;
22571;SDS011;11452;53.368;14.658;2022-10-28T16:35:28;6.27;;;3.70;;
22571;SDS011;11452;53.368;14.658;2022-10-28T16:40:34;6.13;;;3.77;;
22571;SDS011;11452;53.368;14.658;2022-10-28T16:45:41;8.87;;;4.37;;
22571;SDS011;11452;53.368;14.658;2022-10-28T16:50:48;6.10;;;4.33;;
22571;SDS011;11452;53.368;14.658;2022-10-28T16:55:54;5.53;;;3.80;;
22571;SDS011;11452;53.368;14.658;2022-10-28T17:01:03;5.47;;;3.90;;
22571;SDS011;11452;53.368;14.658;2022-10-28T17:06:09;6.90;;;4.03;;
22571;SDS011;11452;53.368;14.658;2022-10-28T17:11:15;6.43;;;3.80;;
22571;SDS011;11452;53.368;14.658;2022-10-28T17:16:21;6.80;;;4.10;;
22571;SDS011;11452;53.368;14.658;2022-10-28T17:21:28;6.60;;;4.83;;
22571;SDS011;11452;53.368;14.658;2022-10-28T17:26:34;5.90;;;4.40;;
22571;SDS011;11452;53.368;14.658;2022-10-28T17:31:39;5.00;;;4.00;;
22571;SDS011;11452;53.368;14.658;2022-10-28T17:36:45;8.57;;;4.37;;
22571;SDS011;11452;53.368;14.658;2022-10-28T17:41:50;6.03;;;4.33;;
22571;SDS011;11452;53.368;14.658;2022-10-28T17:46:56;9.13;;;4.13;;
22571;SDS011;11452;53.368;14.658;2022-10-28T17:52:02;9.27;;;4.53;;
22571;SDS011;11452;53.368;14.658;2022-10-28T17:57:07;7.83;;;4.47;;
22571;SDS011;11452;53.368;14.658;2022-10-28T18:02:13;6.83;;;4.53;;
22571;SDS011;11452;53.368;14.658;2022-10-28T18:07:19;4.60;;;4.00;;
22571;SDS011;11452;53.368;14.658;2022-10-28T18:12:24;9.17;;;4.57;;
22571;SDS011;11452;53.368;14.658;2022-10-28T18:17:30;9.00;;;4.40;;
22571;SDS011;11452;53.368;14.658;2022-10-28T18:22:35;8.07;;;4.40;;
22571;SDS011;11452;53.368;14.658;2022-10-28T18:27:41;6.60;;;4.53;;
22571;SDS011;11452;53.368;14.658;2022-10-28T18:32:47;9.43;;;4.57;;
22571;SDS011;11452;53.368;14.658;2022-10-28T18:37:53;11.13;;;4.93;;
22571;SDS011;11452;53.368;14.658;2022-10-28T18:43:00;6.57;;;4.60;;
22571;SDS011;11452;53.368;14.658;2022-10-28T18:48:05;5.43;;;3.33;;
22571;SDS011;11452;53.368;14.658;2022-10-28T18:53:11;8.33;;;4.37;;
22571;SDS011;11452;53.368;14.658;2022-10-28T18:58:16;6.47;;;5.07;;
22571;SDS011;11452;53.368;14.658;2022-10-28T19:03:22;6.83;;;4.92;;
22571;SDS011;11452;53.368;14.658;2022-10-28T19:08:27;5.90;;;4.20;;
22571;SDS011;11452;53.368;14.658;2022-10-28T19:13:34;7.73;;;4.23;;
22571;SDS011;11452;53.368;14.658;2022-10-28T19:18:41;4.33;;;3.70;;
22571;SDS011;11452;53.368;14.658;2022-10-28T19:23:47;6.60;;;3.97;;
22571;SDS011;11452;53.368;14.658;2022-10-28T19:28:52;7.23;;;3.83;;
22571;SDS011;11452;53.368;14.658;2022-10-28T19:33:58;7.97;;;3.70;;
22571;SDS011;11452;53.368;14.658;2022-10-28T19:39:04;7.20;;;4.37;;
22571;SDS011;11452;53.368;14.658;2022-10-28T19:44:10;6.27;;;4.10;;
22571;SDS011;11452;53.368;14.658;2022-10-28T19:49:15;4.80;;;4.27;;
22571;SDS011;11452;53.368;14.658;2022-10-28T19:54:22;8.57;;;4.57;;
22571;SDS011;11452;53.368;14.658;2022-10-28T19:59:28;5.43;;;4.00;;
22571;SDS011;11452;53.368;14.658;2022-10-28T20:04:33;6.37;;;4.17;;
22571;SDS011;11452;53.368;14.658;2022-10-28T20:09:39;7.27;;;3.83;;
22571;SDS011;11452;53.368;14.658;2022-10-28T20:14:44;8.40;;;4.53;;
22571;SDS011;11452;53.368;14.658;2022-10-28T20:19:50;8.73;;;4.73;;
22571;SDS011;11452;53.368;14.658;2022-10-28T20:24:56;7.40;;;4.10;;
22571;SDS011;11452;53.368;14.658;2022-10-28T20:30:01;9.40;;;4.57;;
22571;SDS011;11452;53.368;14.658;2022-10-28T20:35:08;7.47;;;4.07;;
22571;SDS011;11452;53.368;14.658;2022-10-28T20:40:13;9.37;;;4.97;;
22571;SDS011;11452;53.368;14.658;2022-10-28T20:45:19;4.60;;;3.73;;
22571;SDS011;11452;53.368;14.658;2022-10-28T20:50:24;4.13;;;3.70;;
22571;SDS011;11452;53.368;14.658;2022-10-28T20:55:30;8.13;;;4.53;;
22571;SDS011;11452;53.368;14.658;2022-10-28T21:00:36;4.53;;;3.80;;
22571;SDS011;11452;53.368;14.658;2022-10-28T21:05:42;5.60;;;4.03;;
22571;SDS011;11452;53.368;14.658;2022-10-28T21:10:47;6.87;;;4.07;;
22571;SDS011;11452;53.368;14.658;2022-10-28T21:15:53;5.43;;;4.20;;
22571;SDS011;11452;53.368;14.658;2022-10-28T21:21:00;8.03;;;4.37;;
22571;SDS011;11452;53.368;14.658;2022-10-28T21:26:06;7.03;;;4.13;;
22571;SDS011;11452;53.368;14.658;2022-10-28T21:31:14;6.90;;;4.03;;
22571;SDS011;11452;53.368;14.658;2022-10-28T21:36:23;10.50;;;4.53;;
22571;SDS011;11452;53.368;14.658;2022-10-28T21:41:28;6.90;;;3.77;;
22571;SDS011;11452;53.368;14.658;2022-10-28T21:46:34;6.20;;;4.73;;
22571;SDS011;11452;53.368;14.658;2022-10-28T21:51:40;5.87;;;4.20;;
22571;SDS011;11452;53.368;14.658;2022-10-28T21:56:47;6.43;;;3.93;;
22571;SDS011;11452;53.368;14.658;2022-10-28T22:01:53;5.63;;;4.33;;
22571;SDS011;11452;53.368;14.658;2022-10-28T22:06:59;6.33;;;3.93;;
22571;SDS011;11452;53.368;14.658;2022-10-28T22:12:05;5.97;;;4.20;;
22571;SDS011;11452;53.368;14.658;2022-10-28T22:17:11;5.30;;;4.27;;
22571;SDS011;11452;53.368;14.658;2022-10-28T22:22:17;4.90;;;3.93;;
22571;SDS011;11452;53.368;14.658;2022-10-28T22:27:22;6.30;;;4.37;;
22571;SDS011;11452;53.368;14.658;2022-10-28T22:32:28;7.23;;;4.17;;
22571;SDS011;11452;53.368;14.658;2022-10-28T22:37:33;9.43;;;4.23;;
22571;SDS011;11452;53.368;14.658;2022-10-28T22:42:39;5.03;;;4.03;;
22571;SDS011;11452;53.368;14.658;2022-10-28T22:47:44;6.77;;;4.40;;
22571;SDS011;11452;53.368;14.658;2022-10-28T22:52:50;10.13;;;4.53;;
22571;SDS011;11452;53.368;14.658;2022-10-28T22:57:55;7.43;;;4.70;;
22571;SDS011;11452;53.368;14.658;2022-10-28T23:03:01;7.40;;;3.80;;
22571;SDS011;11452;53.368;14.658;2022-10-28T23:08:08;7.10;;;4.63;;
22571;SDS011;11452;53.368;14.658;2022-10-28T23:13:16;10.07;;;4.30;;
22571;SDS011;11452;53.368;14.658;2022-10-28T23:18:25;7.67;;;4.07;;
22571;SDS011;11452;53.368;14.658;2022-10-28T23:23:31;5.87;;;4.13;;
22571;SDS011;11452;53.368;14.658;2022-10-28T23:28:37;7.53;;;4.27;;
22571;SDS011;11452;53.368;14.658;2022-10-28T23:33:43;7.57;;;4.50;;
22571;SDS011;11452;53.368;14.658;2022-10-28T23:38:49;5.93;;;4.20;;
22571;SDS011;11452;53.368;14.658;2022-10-28T23:43:56;5.37;;;3.83;;
22571;SDS011;11452;53.368;14.658;2022-10-28T23:49:03;6.93;;;4.10;;
22571;SDS011;11452;53.368;14.658;2022-10-28T23:54:08;6.60;;;3.87;;
22571;SDS011;11452;53.368;14.658;2022-10-28T23:59:14;5.60;;;3.30;;
